Time;durP1;ratioP1;P1;durP2;ratioP2;P2;SDS_P1;SDS_P2;PMS_P1;PMS_P2;Temp;Humidity;BMP_temperature;BMP_pressure;BME280_temperature;BME280_humidity;BME280_pressure;Samples;Min_cycle;Max_cycle;Signal;HPM_P1;HPM_P2
2021/10/21 00:01:09;;;;;;;16.82;8.83;;;;;;;8.66;72.84;101474.98;1775179;80;20838;-75
2021/10/21 00:03:36;;;;;;;23.73;8.93;;;;;;;8.65;72.96;101470.22;1775230;80;21560;-75
2021/10/21 00:06:03;;;;;;;13.15;9.50;;;;;;;8.67;73.22;101463.59;1775114;80;21019;-75
2021/10/21 00:08:30;;;;;;;12.53;8.65;;;;;;;8.66;73.17;101461.91;1775225;80;21413;-74
2021/10/21 00:10:57;;;;;;;14.33;9.33;;;;;;;8.66;73.17;101473.21;1775158;80;21077;-74
2021/10/21 00:13:26;;;;;;;15.10;9.83;;;;;;;8.63;73.38;101472.03;1775331;80;21433;-75
2021/10/21 00:15:52;;;;;;;12.13;8.38;;;;;;;8.62;73.57;101453.78;1753602;80;21537;-75
2021/10/21 00:18:19;;;;;;;13.50;9.18;;;;;;;8.61;74.05;101454.70;1775668;80;20908;-75
2021/10/21 00:20:46;;;;;;;16.57;10.28;;;;;;;8.60;74.26;101443.37;1775308;80;20948;-76
2021/10/21 00:23:12;;;;;;;14.78;9.60;;;;;;;8.58;74.79;101446.96;1775548;80;20995;-75
2021/10/21 00:25:40;;;;;;;16.67;9.35;;;;;;;8.58;74.84;101446.96;1775229;80;21354;-76
2021/10/21 00:28:06;;;;;;;15.90;9.90;;;;;;;8.60;74.83;101432.06;1775588;80;21500;-77
2021/10/21 00:30:34;;;;;;;12.55;9.53;;;;;;;8.60;75.07;101435.98;1775209;80;20987;-77
2021/10/21 00:33:01;;;;;;;15.38;9.23;;;;;;;8.61;75.15;101437.25;1775391;80;20834;-75
2021/10/21 00:35:29;;;;;;;16.85;10.35;;;;;;;8.62;75.29;101429.78;1775157;80;20900;-75
2021/10/21 00:37:56;;;;;;;14.73;8.60;;;;;;;8.63;75.22;101421.52;1775272;80;20924;-74
2021/10/21 00:40:23;;;;;;;14.30;9.10;;;;;;;8.64;75.18;101420.13;1775260;80;22135;-77
2021/10/21 00:42:50;;;;;;;16.87;9.18;;;;;;;8.64;75.20;101412.73;1775106;80;21402;-76
2021/10/21 00:45:17;;;;;;;12.73;8.53;;;;;;;8.64;75.17;101418.81;1775375;80;20916;-77
2021/10/21 00:47:45;;;;;;;11.30;8.13;;;;;;;8.65;75.21;101417.08;1775211;80;20979;-77
2021/10/21 00:50:12;;;;;;;13.10;9.43;;;;;;;8.63;75.24;101419.74;1775561;80;21334;-76
2021/10/21 00:52:39;;;;;;;14.55;9.13;;;;;;;8.64;75.42;101419.28;1775299;80;21159;-74
2021/10/21 00:55:06;;;;;;;12.90;8.30;;;;;;;8.64;75.50;101414.89;1775484;80;21001;-77
2021/10/21 00:57:33;;;;;;;13.45;8.23;;;;;;;8.64;75.67;101413.59;1775397;80;21034;-75
2021/10/21 01:00:00;;;;;;;15.95;8.93;;;;;;;8.64;75.83;101413.59;1775424;80;20888;-76
2021/10/21 01:02:27;;;;;;;11.33;8.25;;;;;;;8.64;76.11;101397.89;1775038;80;20888;-77
2021/10/21 01:04:53;;;;;;;13.13;9.43;;;;;;;8.63;76.12;101398.83;1775397;80;21170;-76
2021/10/21 01:07:20;;;;;;;16.62;10.30;;;;;;;8.63;76.20;101392.29;1775496;80;20842;-75
2021/10/21 01:09:49;;;;;;;16.05;9.10;;;;;;;8.63;76.35;101396.21;1775193;80;20889;-77
2021/10/21 01:12:16;;;;;;;14.85;9.43;;;;;;;8.64;76.67;101386.59;1775614;80;21066;-75
2021/10/21 01:14:43;;;;;;;15.38;8.95;;;;;;;8.64;76.73;101382.67;1775298;80;20936;-77
2021/10/21 01:17:16;;;;;;;18.55;12.13;;;;;;;8.64;76.75;101372.22;1775369;80;21556;-76
2021/10/21 01:19:42;;;;;;;17.55;10.25;;;;;;;8.64;76.67;101374.36;1775306;80;20908;-76
2021/10/21 01:22:09;;;;;;;15.32;10.00;;;;;;;8.64;76.78;101373.52;1775604;80;21335;-75
2021/10/21 01:24:36;;;;;;;11.95;9.40;;;;;;;8.63;76.72;101376.60;1775445;80;20972;-77
2021/10/21 01:27:03;;;;;;;14.30;9.48;;;;;;;8.63;76.82;101383.60;1775457;80;21034;-76
2021/10/21 01:29:30;;;;;;;14.30;8.93;;;;;;;8.63;76.82;101386.22;1775099;80;21990;-76
2021/10/21 01:31:57;;;;;;;16.75;8.78;;;;;;;8.61;76.92;101383.66;1775479;80;20868;-75
2021/10/21 01:34:24;;;;;;;15.15;9.85;;;;;;;8.60;76.97;101373.24;1775169;80;20940;-74
2021/10/21 01:36:53;;;;;;;14.23;9.15;;;;;;;8.60;77.00;101370.62;1775411;80;20845;-75
2021/10/21 01:39:21;;;;;;;14.18;9.98;;;;;;;8.58;77.10;101374.63;1775330;80;21366;-74
2021/10/21 01:41:47;;;;;;;16.45;10.08;;;;;;;8.57;77.25;101380.76;1775081;80;21466;-74
2021/10/21 01:44:15;;;;;;;18.48;10.65;;;;;;;8.57;77.33;101371.61;1775165;80;20967;-75
2021/10/21 01:46:42;;;;;;;12.73;9.35;;;;;;;8.57;77.51;101365.53;1775223;80;21195;-75
2021/10/21 01:49:09;;;;;;;14.43;9.75;;;;;;;8.56;77.71;101364.69;1775016;80;21398;-75
2021/10/21 01:51:36;;;;;;;13.38;9.53;;;;;;;8.53;77.95;101356.95;1775431;80;20877;-75
2021/10/21 01:54:02;;;;;;;15.78;9.60;;;;;;;8.53;78.04;101356.11;1775259;80;21138;-76
2021/10/21 01:56:29;;;;;;;13.18;8.95;;;;;;;8.51;78.23;101350.93;1775352;80;20845;-75
2021/10/21 01:58:56;;;;;;;14.90;10.25;;;;;;;8.50;78.38;101351.39;1775244;80;20931;-75
2021/10/21 02:01:23;;;;;;;12.33;9.98;;;;;;;8.50;78.42;101363.16;1775488;80;21433;-75
2021/10/21 02:03:50;;;;;;;17.20;11.12;;;;;;;8.52;78.44;101354.42;1775118;80;20884;-76
2021/10/21 02:06:17;;;;;;;16.70;9.18;;;;;;;8.52;78.45;101362.27;1775197;80;21020;-74
2021/10/21 02:08:44;;;;;;;20.25;12.63;;;;;;;8.52;78.67;101364.88;1775105;80;21469;-75
2021/10/21 02:11:13;;;;;;;15.13;11.75;;;;;;;8.50;78.71;101367.08;1775077;80;21019;-75
2021/10/21 02:13:40;;;;;;;14.83;9.90;;;;;;;8.50;78.72;101365.77;1775125;80;21390;-76
2021/10/21 02:16:06;;;;;;;12.65;9.63;;;;;;;8.52;78.92;101370.10;1775372;80;20932;-75
2021/10/21 02:18:33;;;;;;;15.10;9.78;;;;;;;8.51;79.07;101371.84;1775141;80;21117;-75
2021/10/21 02:21:00;;;;;;;15.28;10.18;;;;;;;8.51;79.16;101375.77;1775093;80;21524;-76
2021/10/21 02:23:27;;;;;;;15.75;10.03;;;;;;;8.51;79.33;101366.61;1775399;80;20990;-76
2021/10/21 02:25:53;;;;;;;17.40;10.18;;;;;;;8.50;79.45;101361.84;1775598;80;20933;-76
2021/10/21 02:28:20;;;;;;;14.15;9.70;;;;;;;8.51;79.50;101371.84;1775471;80;20856;-75
2021/10/21 02:30:47;;;;;;;16.02;11.03;;;;;;;8.50;79.53;101381.45;1775551;80;21513;-76
2021/10/21 02:33:14;;;;;;;16.85;10.18;;;;;;;8.52;79.65;101381.41;1775312;80;20880;-75
2021/10/21 02:35:41;;;;;;;16.70;11.08;;;;;;;8.50;79.63;101374.92;1775412;80;20920;-76
2021/10/21 02:38:08;;;;;;;14.58;9.35;;;;;;;8.52;79.81;101380.56;1775208;80;20857;-75
2021/10/21 02:40:35;;;;;;;17.32;10.53;;;;;;;8.52;79.75;101370.10;1775329;80;20923;-75
2021/10/21 02:43:02;;;;;;;15.53;11.22;;;;;;;8.51;79.86;101371.84;1775380;80;21544;-76
2021/10/21 02:45:30;;;;;;;14.25;9.80;;;;;;;8.53;80.08;101367.88;1775222;80;21385;-75
2021/10/21 02:47:56;;;;;;;15.20;11.38;;;;;;;8.53;80.13;101369.17;1775547;80;21545;-76
2021/10/21 02:50:24;;;;;;;15.98;9.55;;;;;;;8.54;80.22;101355.18;1775379;80;20944;-75
2021/10/21 02:52:51;;;;;;;12.90;10.05;;;;;;;8.56;80.41;101362.08;1775730;80;20924;-75
2021/10/21 02:55:17;;;;;;;14.40;9.90;;;;;;;8.57;80.52;101358.53;1775397;80;21012;-77
2021/10/21 02:57:45;;;;;;;14.70;9.95;;;;;;;8.59;80.66;101361.09;1775535;80;20892;-77
2021/10/21 03:00:12;;;;;;;15.90;10.32;;;;;;;8.60;80.81;101358.86;1775342;80;20929;-75
2021/10/21 03:02:39;;;;;;;15.00;11.05;;;;;;;8.61;80.82;101357.50;1775489;80;20952;-76
2021/10/21 03:05:07;;;;;;;13.98;10.10;;;;;;;8.62;80.81;101344.81;1775246;80;20983;-77
2021/10/21 03:07:35;;;;;;;19.82;10.13;;;;;;;8.63;80.90;101345.22;1775271;80;21156;-76
2021/10/21 03:10:01;;;;;;;14.58;10.43;;;;;;;8.64;80.95;101333.00;1775257;80;21370;-76
2021/10/21 03:12:28;;;;;;;13.60;10.55;;;;;;;8.64;80.97;101335.14;1775320;80;20864;-78
2021/10/21 03:14:55;;;;;;;14.18;10.98;;;;;;;8.65;81.05;101336.87;1775396;80;20924;-76
2021/10/21 03:17:22;;;;;;;17.05;10.25;;;;;;;8.67;81.16;101331.55;1775639;80;21023;-77
2021/10/21 03:19:49;;;;;;;17.25;9.95;;;;;;;8.67;81.22;101315.86;1775315;80;21114;-76
2021/10/21 03:22:16;;;;;;;15.90;11.85;;;;;;;8.67;81.32;101320.66;1775335;80;20975;-76
2021/10/21 03:24:42;;;;;;;20.12;10.60;;;;;;;8.68;81.45;101323.66;1775315;80;20979;-76
2021/10/21 03:27:09;;;;;;;17.37;10.82;;;;;;;8.70;81.44;101332.30;1775544;80;20865;-77
2021/10/21 03:29:36;;;;;;;13.70;9.78;;;;;;;8.73;81.54;101325.23;1775374;80;20852;-76
2021/10/21 03:32:03;;;;;;;13.38;10.68;;;;;;;8.73;81.57;101324.77;1775605;80;21438;-76
2021/10/21 03:34:32;;;;;;;16.05;11.18;;;;;;;8.75;81.60;101338.64;1775291;80;20944;-76
2021/10/21 03:36:59;;;;;;;18.82;12.00;;;;;;;8.75;81.62;101329.48;1775474;80;20907;-76
2021/10/21 03:39:26;;;;;;;14.68;10.63;;;;;;;8.77;81.60;101323.73;1775312;80;20944;-76
2021/10/21 03:41:54;;;;;;;15.80;11.00;;;;;;;8.79;81.62;101319.77;1775209;80;20897;-76
2021/10/21 03:44:21;;;;;;;16.85;10.20;;;;;;;8.80;81.62;101317.53;1775292;80;21118;-77
2021/10/21 03:46:48;;;;;;;15.28;11.55;;;;;;;8.81;81.67;101325.78;1775186;80;20884;-76
2021/10/21 03:49:15;;;;;;;14.13;10.55;;;;;;;8.80;81.81;101326.22;1775551;80;20968;-78
2021/10/21 03:51:41;;;;;;;12.68;10.70;;;;;;;8.81;81.80;101318.78;1775258;80;20904;-78
2021/10/21 03:54:13;;;;;;;18.55;11.70;;;;;;;8.82;81.82;101310.47;1775423;80;20841;-76
2021/10/21 03:56:37;;;;;;;16.07;12.33;;;;;;;8.84;81.85;101311.26;1775114;80;21553;-77
2021/10/21 03:59:05;;;;;;;15.90;10.72;;;;;;;8.83;81.87;101308.27;1775196;80;20979;-78
2021/10/21 04:01:32;;;;;;;18.55;12.30;;;;;;;8.83;81.89;101318.73;1775231;80;20983;-77
2021/10/21 04:03:59;;;;;;;13.22;11.25;;;;;;;8.83;81.86;101302.57;1779259;80;20899;-77
2021/10/21 04:06:26;;;;;;;19.00;11.18;;;;;;;8.85;81.92;101312.98;1783575;80;20912;-76
2021/10/21 04:08:53;;;;;;;15.53;11.25;;;;;;;8.86;82.01;101325.97;1783509;80;21137;-73
2021/10/21 04:11:20;;;;;;;15.48;10.82;;;;;;;8.88;82.10;101325.45;1783611;80;20932;-75
2021/10/21 04:13:48;;;;;;;18.30;12.35;;;;;;;8.90;82.29;101329.32;1783408;80;20893;-75
2021/10/21 04:16:15;;;;;;;15.72;12.00;;;;;;;8.94;82.29;101334.83;1783497;80;21342;-74
2021/10/21 04:18:42;;;;;;;15.05;11.28;;;;;;;8.96;82.29;101330.38;1783665;80;21002;-73
2021/10/21 04:21:11;;;;;;;20.00;12.60;;;;;;;8.99;82.27;101330.23;1783409;80;21554;-75
2021/10/21 04:23:38;;;;;;;17.30;12.13;;;;;;;9.02;82.32;101318.79;1783451;80;20876;-75
2021/10/21 04:26:06;;;;;;;16.75;10.45;;;;;;;9.06;82.25;101313.83;1783571;80;20936;-76
2021/10/21 04:28:34;;;;;;;13.70;10.63;;;;;;;9.07;82.27;101307.23;1783430;80;21453;-76
2021/10/21 04:31:01;;;;;;;23.65;12.58;;;;;;;9.10;82.28;101308.40;1783549;80;20979;-75
2021/10/21 04:33:28;;;;;;;14.30;11.12;;;;;;;9.13;82.21;101300.87;1783495;80;20971;-76
2021/10/21 04:35:55;;;;;;;15.45;10.78;;;;;;;9.17;82.19;101311.59;1783482;80;20912;-77
2021/10/21 04:38:21;;;;;;;15.43;10.80;;;;;;;9.19;82.13;101303.23;1783936;80;20959;-78
2021/10/21 04:40:48;;;;;;;13.88;9.70;;;;;;;9.21;82.08;101299.25;1783515;80;20919;-78
2021/10/21 04:43:15;;;;;;;17.45;11.45;;;;;;;9.24;82.06;101301.72;1783695;80;20951;-77
2021/10/21 04:45:42;;;;;;;17.45;10.38;;;;;;;9.26;82.03;101312.97;1783600;80;21772;-76
2021/10/21 04:48:08;;;;;;;14.15;10.68;;;;;;;9.27;82.01;101311.61;1783351;80;20877;-77
2021/10/21 04:50:35;;;;;;;13.08;10.28;;;;;;;9.29;81.95;101299.30;1783904;80;20932;-78
2021/10/21 04:53:03;;;;;;;13.75;9.25;;;;;;;9.33;81.89;101305.23;1783382;80;20991;-78
2021/10/21 04:55:35;;;;;;;15.23;10.55;;;;;;;9.36;81.79;101295.09;1783494;80;20931;-77
2021/10/21 04:57:59;;;;;;;15.43;10.30;;;;;;;9.41;81.71;101301.83;1783478;80;21537;-77
2021/10/21 05:00:26;;;;;;;17.17;10.50;;;;;;;9.44;81.57;101295.14;1783775;80;20916;-77
2021/10/21 05:02:53;;;;;;;13.88;10.40;;;;;;;9.48;81.50;101287.55;1783270;80;20979;-77
2021/10/21 05:05:20;;;;;;;12.70;9.50;;;;;;;9.54;81.37;101294.29;1769547;80;20861;-78
2021/10/21 05:07:47;;;;;;;12.70;9.83;;;;;;;9.61;81.19;101312.73;1767817;81;20995;-76
2021/10/21 05:10:16;;;;;;;14.75;10.55;;;;;;;9.68;81.01;101304.14;1768153;81;20901;-76
2021/10/21 05:12:45;;;;;;;20.17;10.40;;;;;;;9.72;80.85;101319.64;1768202;80;20948;-75
2021/10/21 05:15:12;;;;;;;18.62;10.32;;;;;;;9.81;80.71;101305.28;1768319;81;20968;-77
2021/10/21 05:17:39;;;;;;;13.93;10.58;;;;;;;9.91;80.49;101304.39;1768229;81;20932;-77
2021/10/21 05:20:08;;;;;;;14.18;9.65;;;;;;;10.00;80.24;101300.02;1768156;80;20968;-76
2021/10/21 05:22:35;;;;;;;13.85;9.63;;;;;;;10.10;79.97;101309.17;1767966;81;21836;-78
2021/10/21 05:25:02;;;;;;;16.95;10.15;;;;;;;10.21;79.62;101298.65;1768306;80;20924;-77
2021/10/21 05:27:28;;;;;;;15.63;8.20;;;;;;;10.35;79.39;101299.70;1768209;81;20865;-77
2021/10/21 05:29:55;;;;;;;12.05;9.98;;;;;;;10.57;78.79;101303.44;1768284;80;21374;-76
2021/10/21 05:32:22;;;;;;;11.18;8.95;;;;;;;10.77;78.25;101301.14;1768185;80;21031;-76
2021/10/21 05:34:48;;;;;;;13.28;8.15;;;;;;;11.19;77.33;101304.30;1768637;81;21785;-76
2021/10/21 05:37:15;;;;;;;18.37;9.68;;;;;;;11.73;75.55;101302.78;1767950;81;20881;-79
2021/10/21 05:39:42;;;;;;;13.55;8.98;;;;;;;12.19;74.00;101305.09;1768099;80;20938;-76
2021/10/21 05:42:09;;;;;;;14.70;9.45;;;;;;;12.55;72.49;101305.25;1768118;80;20992;-75
2021/10/21 05:44:36;;;;;;;9.70;8.30;;;;;;;12.88;70.59;101302.09;1768503;81;20988;-75
2021/10/21 05:47:04;;;;;;;10.23;8.10;;;;;;;13.16;69.46;101303.91;1768235;80;21094;-76
2021/10/21 05:49:31;;;;;;;12.40;8.63;;;;;;;13.56;68.25;101280.00;1768108;80;20932;-75
2021/10/21 05:51:57;;;;;;;13.18;8.08;;;;;;;13.96;67.00;101300.35;1768116;81;20920;-75
2021/10/21 05:54:24;;;;;;;12.28;8.35;;;;;;;14.34;65.40;101292.64;1768243;81;20971;-78
2021/10/21 05:56:51;;;;;;;11.68;7.70;;;;;;;14.68;64.05;101302.33;1768171;81;21335;-77
2021/10/21 05:59:18;;;;;;;10.08;8.58;;;;;;;14.95;63.17;101297.47;1768040;80;21152;-76
2021/10/21 06:01:45;;;;;;;12.15;8.35;;;;;;;15.27;62.15;101295.25;1768374;80;20941;-76
2021/10/21 06:04:12;;;;;;;11.22;7.95;;;;;;;15.62;61.23;101314.44;1770500;80;21346;-77
2021/10/21 06:06:39;;;;;;;13.58;8.75;;;;;;;15.96;59.98;101308.94;1775047;80;20900;-76
2021/10/21 06:09:05;;;;;;;11.88;7.85;;;;;;;16.26;58.66;101312.98;1775607;80;20952;-76
2021/10/21 06:11:35;;;;;;;11.18;9.45;;;;;;;16.49;57.74;101306.83;1775222;80;21572;-77
2021/10/21 06:14:02;;;;;;;13.72;8.43;;;;;;;16.68;57.12;101308.13;1775667;80;20857;-76
2021/10/21 06:18:29;;;;;;;13.78;8.45;;;;;;;16.63;56.69;101299.66;1798542;79;22632;-86
2021/10/21 06:20:56;;;;;;;12.88;7.95;;;;;;;16.20;57.27;101297.55;1758459;81;20959;-83
2021/10/21 06:23:24;;;;;;;12.88;7.92;;;;;;;15.73;58.43;101297.36;1758566;81;21123;-82
2021/10/21 06:25:53;;;;;;;16.32;8.30;;;;;;;15.29;59.68;101310.53;1758274;81;20995;-82
2021/10/21 06:28:22;;;;;;;12.43;6.78;;;;;;;14.65;61.74;101287.98;1758415;81;21053;-81
2021/10/21 06:30:49;;;;;;;8.83;6.83;;;;;;;14.65;61.74;101287.98;1696066;83;21345;-81
2021/10/21 06:33:16;;;;;;;10.82;7.08;;;;;;;14.49;62.37;101294.73;1724889;83;20883;-83
2021/10/21 06:35:46;;;;;;;9.73;7.22;;;;;;;14.29;63.21;101286.80;1724892;81;21140;-82
2021/10/21 06:38:15;;;;;;;9.45;7.40;;;;;;;14.29;63.21;101286.80;1724788;81;20931;-85
2021/10/21 06:40:42;;;;;;;11.48;7.85;;;;;;;14.25;63.54;101289.25;1724864;83;20927;-83
2021/10/21 06:43:09;;;;;;;13.95;7.47;;;;;;;14.19;63.78;101275.16;1724747;83;20875;-82
2021/10/21 06:45:36;;;;;;;10.95;7.53;;;;;;;14.14;63.99;101278.10;1724734;81;20899;-81
2021/10/21 06:48:03;;;;;;;8.53;6.65;;;;;;;14.07;64.16;101276.78;1724724;83;21933;-83
2021/10/21 06:50:31;;;;;;;9.28;6.80;;;;;;;13.97;64.46;101255.44;1724666;83;21006;-84
2021/10/21 06:52:58;;;;;;;12.53;7.30;;;;;;;13.93;64.75;101267.59;1723944;83;20942;-83
2021/10/21 06:55:25;;;;;;;10.75;7.83;;;;;;;13.91;64.86;101269.00;1723841;81;20975;-81
2021/10/21 06:58:00;;;;;;;8.73;6.62;;;;;;;13.91;64.95;101273.44;1724735;83;21470;-79
2021/10/21 07:00:24;;;;;;;13.60;7.22;;;;;;;13.95;64.98;101263.91;1722914;83;21121;-81
2021/10/21 07:02:51;;;;;;;7.95;5.95;;;;;;;14.00;64.80;101270.21;1723090;82;21603;-86
2021/10/21 07:05:22;;;;;;;13.45;6.45;;;;;;;14.02;64.53;101277.08;1723747;81;20980;-83
2021/10/21 07:07:47;;;;;;;13.60;7.70;;;;;;;14.02;64.45;101278.39;1723787;83;21017;-82
2021/10/21 07:10:15;;;;;;;10.40;6.50;;;;;;;14.03;64.38;101277.95;1724798;83;20927;-82
2021/10/21 07:12:47;;;;;;;9.20;6.28;;;;;;;14.06;64.45;101271.98;1724943;83;21389;-83
2021/10/21 07:15:15;;;;;;;9.10;5.97;;;;;;;14.14;64.38;101275.91;1725483;83;20851;-82
2021/10/21 07:17:43;;;;;;;8.63;5.47;;;;;;;14.20;63.81;101267.61;1716340;83;20979;-85
2021/10/21 07:20:14;;;;;;;12.03;6.17;;;;;;;14.25;63.87;101262.42;1710425;83;21544;-84
2021/10/21 07:22:46;;;;;;;9.05;5.60;;;;;;;14.33;63.80;101271.14;1710320;82;20986;-86
2021/10/21 07:25:13;;;;;;;9.20;4.95;;;;;;;14.44;63.17;101275.23;1709928;82;21120;-80
2021/10/21 07:27:41;;;;;;;8.93;5.03;;;;;;;14.50;61.58;101250.25;1709230;84;20924;-82
2021/10/21 07:30:09;;;;;;;12.13;5.12;;;;;;;14.55;61.69;101258.73;1709182;84;20888;-81
2021/10/21 07:32:37;;;;;;;9.60;4.22;;;;;;;14.64;61.45;101258.59;1708864;82;20936;-82
2021/10/21 07:35:04;;;;;;;9.33;4.85;;;;;;;14.76;60.98;101240.59;1708722;82;21592;-84
2021/10/21 07:37:31;;;;;;;16.65;4.15;;;;;;;14.88;60.12;101249.02;1708577;82;21939;-84
2021/10/21 07:40:00;;;;;;;23.52;5.17;;;;;;;14.95;58.68;101237.56;1708823;84;20896;-82
2021/10/21 07:42:27;;;;;;;9.58;3.80;;;;;;;14.97;58.40;101248.87;1708921;84;21472;-82
2021/10/21 07:44:54;;;;;;;108.50;75.03;;;;;;;14.99;57.92;101240.36;1709066;84;20904;-82
2021/10/21 07:47:22;;;;;;;33.02;22.80;;;;;;;15.05;57.86;101245.69;1744876;81;20991;-83
2021/10/21 07:49:48;;;;;;;20.10;8.55;;;;;;;15.13;57.52;101240.24;1745842;82;21089;-84
2021/10/21 07:52:17;;;;;;;10.13;5.45;;;;;;;15.21;57.10;101243.69;1744646;81;20917;-81
2021/10/21 07:54:45;;;;;;;11.53;4.58;;;;;;;15.38;56.75;101231.09;1744957;81;21070;-78
2021/10/21 07:57:19;;;;;;;7.58;4.40;;;;;;;15.69;56.21;101220.49;1744898;81;20948;-82
2021/10/21 07:59:41;;;;;;;10.18;4.42;;;;;;;16.20;54.58;101228.74;1743883;81;21007;-83
2021/10/21 08:02:08;;;;;;;17.17;4.08;;;;;;;16.71;52.90;101227.95;1744721;82;21203;-85
2021/10/21 08:04:37;;;;;;;9.58;3.52;;;;;;;17.25;51.08;101211.89;1744508;82;20924;-79
2021/10/21 08:07:03;;;;;;;5.42;4.17;;;;;;;17.67;50.21;101218.73;1744649;81;21488;-80
2021/10/21 08:09:31;;;;;;;12.98;3.95;;;;;;;18.14;49.36;101211.88;1744970;81;20897;-78
2021/10/21 08:12:00;;;;;;;17.10;4.03;;;;;;;18.58;47.88;101207.33;1744513;82;20893;-73
2021/10/21 08:14:27;;;;;;;5.33;3.30;;;;;;;18.93;46.63;101200.86;1736476;82;21589;-77
2021/10/21 08:16:54;;;;;;;11.53;3.87;;;;;;;19.21;46.40;101206.80;1737345;81;20930;-71
2021/10/21 08:19:21;;;;;;;14.50;4.22;;;;;;;19.58;44.81;101195.55;1750133;82;21371;-76
2021/10/21 08:21:48;;;;;;;10.35;3.37;;;;;;;19.90;43.71;101196.34;1750141;82;20884;-86
2021/10/21 08:24:16;;;;;;;7.00;3.95;;;;;;;20.16;43.28;101181.49;1750359;80;20920;-82
2021/10/21 08:26:44;;;;;;;6.83;2.75;;;;;;;20.49;42.86;101192.19;1750256;80;21856;-83
2021/10/21 08:29:10;;;;;;;8.23;3.80;;;;;;;20.85;42.06;101183.59;1750387;82;20865;-82
2021/10/21 08:31:38;;;;;;;7.53;3.25;;;;;;;21.13;41.15;101192.97;1750247;82;20920;-86
2021/10/21 08:34:05;;;;;;;7.80;3.60;;;;;;;21.31;40.74;101181.36;1750564;82;20967;-84
2021/10/21 08:36:32;;;;;;;4.80;3.45;;;;;;;21.49;40.46;101173.92;1750148;82;21019;-83
2021/10/21 08:38:59;;;;;;;9.50;3.92;;;;;;;21.55;39.12;101180.00;1750725;80;21115;-82
2021/10/21 08:41:25;;;;;;;9.95;4.28;;;;;;;21.36;39.61;101183.58;1750456;82;20984;-81
2021/10/21 08:43:53;;;;;;;6.87;3.70;;;;;;;21.28;39.89;101187.00;1750265;82;21493;-77
2021/10/21 08:46:25;;;;;;;7.72;3.15;;;;;;;21.14;39.83;101184.80;1750242;82;20928;-77
2021/10/21 08:48:58;;;;;;;4.75;3.27;;;;;;;20.83;39.59;101166.42;1750148;82;20975;-76
2021/10/21 08:51:25;;;;;;;6.45;4.45;;;;;;;20.56;40.17;101168.48;1750130;82;22401;-77
2021/10/21 08:53:52;;;;;;;4.15;3.05;;;;;;;20.48;40.79;101167.88;1749893;82;20896;-76
2021/10/21 08:56:26;;;;;;;9.43;3.60;;;;;;;20.49;40.77;101163.38;1749967;80;20896;-76
2021/10/21 08:58:54;;;;;;;9.20;4.55;;;;;;;20.43;41.16;101162.14;1750256;82;20952;-77
2021/10/21 09:01:30;;;;;;;10.90;4.15;;;;;;;20.26;41.47;101153.55;1750243;80;20873;-78
2021/10/21 09:04:02;;;;;;;6.67;3.87;;;;;;;20.20;41.74;101156.27;1748652;82;21566;-76
2021/10/21 09:09:26;;;;;;;8.50;3.92;;;;;;;20.20;41.38;101139.45;1750027;82;20912;-78
2021/10/21 09:12:08;;;;;;;9.65;3.33;;;;;;;20.18;41.23;101148.08;1750241;80;20979;-78
2021/10/21 09:14:49;;;;;;;12.03;3.70;;;;;;;20.25;41.17;101138.06;1750120;82;20943;-78
2021/10/21 09:17:18;;;;;;;10.75;4.37;;;;;;;20.33;41.14;101143.16;1749929;80;21144;-79
2021/10/21 09:19:46;;;;;;;4.85;2.85;;;;;;;20.38;41.08;101123.58;1750014;82;21460;-78
2021/10/21 09:22:27;;;;;;;11.48;4.40;;;;;;;20.44;41.06;101125.67;1749982;80;21002;-77
2021/10/21 09:24:53;;;;;;;5.67;4.33;;;;;;;20.47;42.14;101120.88;1748610;82;20952;-75
2021/10/21 09:27:25;;;;;;;6.33;4.78;;;;;;;20.62;42.54;101123.13;1750026;82;20892;-78
2021/10/21 09:29:56;;;;;;;11.57;4.60;;;;;;;20.82;42.83;101131.91;1749933;82;21093;-78
2021/10/21 09:32:32;;;;;;;5.55;4.58;;;;;;;20.96;42.78;101118.58;1750025;82;21037;-76
2021/10/21 09:35:04;;;;;;;5.22;4.28;;;;;;;20.95;43.00;101112.41;1723509;82;20923;-77
2021/10/21 09:37:36;;;;;;;7.55;4.42;;;;;;;20.95;43.07;101108.41;1750110;80;20889;-77
2021/10/21 09:40:08;;;;;;;6.25;4.10;;;;;;;21.01;43.07;101110.49;1750206;80;20935;-76
2021/10/21 09:42:39;;;;;;;7.55;4.20;;;;;;;21.12;42.96;101106.77;1750080;80;21794;-75
2021/10/21 09:45:20;;;;;;;7.58;4.65;;;;;;;21.29;42.52;101095.80;1749283;80;20959;-77
2021/10/21 09:47:54;;;;;;;7.70;4.55;;;;;;;21.43;42.12;101095.80;1750260;80;20845;-75
2021/10/21 09:50:40;;;;;;;10.28;5.67;;;;;;;21.44;42.27;101087.65;1750224;82;20971;-76
2021/10/21 09:53:31;;;;;;;13.30;5.53;;;;;;;21.48;42.16;101077.02;1750120;82;20864;-77
2021/10/21 09:56:08;;;;;;;12.03;5.08;;;;;;;21.31;41.84;101083.14;1750010;80;21562;-76
2021/10/21 09:58:39;;;;;;;12.73;6.47;;;;;;;21.09;42.77;101065.73;1750080;81;20900;-78
2021/10/21 10:01:13;;;;;;;10.53;4.67;;;;;;;21.03;42.92;101064.52;1750199;82;21338;-77
2021/10/21 10:03:44;;;;;;;12.00;4.85;;;;;;;21.00;42.92;101062.63;1749555;80;20893;-77
2021/10/21 10:06:12;;;;;;;7.80;5.45;;;;;;;21.03;42.98;101056.98;1750298;80;21177;-77
2021/10/21 10:08:39;;;;;;;10.38;4.67;;;;;;;21.02;43.09;101049.48;1750131;82;21511;-79
2021/10/21 10:11:12;;;;;;;16.05;4.97;;;;;;;21.13;42.65;101054.28;1749850;82;21359;-77
2021/10/21 10:13:42;;;;;;;7.57;4.50;;;;;;;21.30;42.26;101052.13;1750386;81;21070;-76
2021/10/21 10:16:09;;;;;;;9.25;5.80;;;;;;;21.56;41.84;101036.20;1750364;80;20913;-77
2021/10/21 10:18:46;;;;;;;14.95;5.35;;;;;;;21.81;41.56;101029.73;1742462;81;20952;-75
2021/10/21 10:21:23;;;;;;;11.88;5.75;;;;;;;22.02;40.98;101027.56;1736184;81;22210;-79
2021/10/21 10:24:00;;;;;;;14.47;4.65;;;;;;;22.13;40.92;101037.98;1735983;82;20873;-77
2021/10/21 10:26:50;;;;;;;8.38;4.20;;;;;;;22.13;40.97;101033.97;1736031;82;21372;-76
2021/10/21 10:29:41;;;;;;;8.33;5.45;;;;;;;22.10;40.93;101027.63;1735934;82;21482;-77
2021/10/21 10:32:38;;;;;;;15.68;4.97;;;;;;;21.99;40.93;101028.36;1736887;82;20928;-75
2021/10/21 10:35:09;;;;;;;9.50;5.37;;;;;;;21.75;41.11;101027.20;1735993;82;21163;-75
2021/10/21 10:37:46;;;;;;;9.10;5.67;;;;;;;21.42;41.71;101027.42;1735797;81;20937;-78
2021/10/21 10:40:13;;;;;;;10.98;4.87;;;;;;;21.14;42.24;101022.10;1736029;82;20846;-77
2021/10/21 10:42:48;;;;;;;7.58;4.92;;;;;;;20.89;42.94;101021.02;1736348;82;20948;-76
2021/10/21 10:45:15;;;;;;;6.85;4.25;;;;;;;20.69;43.51;101028.27;1736079;82;21419;-76
2021/10/21 10:47:49;;;;;;;10.18;5.83;;;;;;;20.50;44.12;101008.70;1735946;82;21142;-75
2021/10/21 10:50:28;;;;;;;8.95;4.67;;;;;;;20.34;44.55;101021.79;1736119;82;20968;-76
2021/10/21 10:53:00;;;;;;;12.00;4.72;;;;;;;20.14;44.93;101022.34;1735958;82;20940;-76
2021/10/21 10:55:46;;;;;;;12.47;5.90;;;;;;;19.90;45.52;101021.52;1736020;82;20862;-76
2021/10/21 10:58:27;;;;;;;9.78;4.45;;;;;;;19.67;45.99;101025.79;1736024;82;20956;-76
2021/10/21 11:00:58;;;;;;;10.90;5.12;;;;;;;19.55;46.44;101020.75;1736238;82;21754;-77
2021/10/21 11:03:37;;;;;;;14.07;5.72;;;;;;;19.40;46.91;101014.50;1735506;82;21051;-77
2021/10/21 11:06:17;;;;;;;10.35;4.40;;;;;;;19.35;47.17;101009.27;1736328;82;21370;-78
2021/10/21 11:09:06;;;;;;;7.10;4.50;;;;;;;19.33;47.29;101012.05;1735274;82;21461;-76
2021/10/21 11:12:01;;;;;;;10.15;4.67;;;;;;;19.24;47.41;101007.08;1736083;82;20905;-77
2021/10/21 11:14:37;;;;;;;12.20;5.70;;;;;;;19.19;47.61;101006.66;1735268;82;21965;-76
2021/10/21 11:17:06;;;;;;;11.03;6.08;;;;;;;19.16;47.68;100996.78;1735966;82;20948;-77
2021/10/21 11:19:45;;;;;;;10.32;5.10;;;;;;;19.13;47.81;100993.08;1746812;81;21453;-76
2021/10/21 11:22:28;;;;;;;9.08;4.33;;;;;;;19.05;47.94;100985.32;1750178;82;20979;-75
2021/10/21 11:25:00;;;;;;;9.25;5.35;;;;;;;18.98;48.03;100984.16;1750149;82;21576;-77
2021/10/21 11:27:39;;;;;;;20.27;5.47;;;;;;;18.95;48.15;100972.49;1749973;80;21133;-76
2021/10/21 11:30:20;;;;;;;14.75;5.05;;;;;;;18.89;48.15;100994.30;1749633;82;20865;-75
2021/10/21 11:32:48;;;;;;;8.05;5.10;;;;;;;18.82;48.27;100966.10;1743899;82;20924;-75
2021/10/21 11:35:22;;;;;;;7.83;5.10;;;;;;;18.79;48.37;100961.57;1750392;82;20943;-75